sensor_id;sensor_type;location;lat;lon;timestamp;temperature;humidity
30328;DHT22;17133;52.418;13.398;2022-10-14T00:02:09;8.50;99.90
30328;DHT22;17133;52.418;13.398;2022-10-14T00:04:35;8.40;99.90
30328;DHT22;17133;52.418;13.398;2022-10-14T00:07:00;8.30;99.90
30328;DHT22;17133;52.418;13.398;2022-10-14T00:09:26;8.30;99.90
30328;DHT22;17133;52.418;13.398;2022-10-14T00:11:51;8.30;99.90
30328;DHT22;17133;52.418;13.398;2022-10-14T00:14:19;8.30;99.90
30328;DHT22;17133;52.418;13.398;2022-10-14T00:21:41;8.30;99.90
30328;DHT22;17133;52.418;13.398;2022-10-14T00:24:07;8.30;99.90
30328;DHT22;17133;52.418;13.398;2022-10-14T00:26:35;8.30;99.90
30328;DHT22;17133;52.418;13.398;2022-10-14T00:29:03;8.30;99.90
30328;DHT22;17133;52.418;13.398;2022-10-14T00:31:29;8.40;99.90
30328;DHT22;17133;52.418;13.398;2022-10-14T00:33:55;8.30;99.90
30328;DHT22;17133;52.418;13.398;2022-10-14T00:36:23;8.30;99.90
30328;DHT22;17133;52.418;13.398;2022-10-14T00:38:50;8.30;99.90
30328;DHT22;17133;52.418;13.398;2022-10-14T00:41:22;8.30;99.90
30328;DHT22;17133;52.418;13.398;2022-10-14T00:46:48;8.20;99.90
30328;DHT22;17133;52.418;13.398;2022-10-14T00:49:18;8.20;99.90
30328;DHT22;17133;52.418;13.398;2022-10-14T00:51:50;8.20;99.90
30328;DHT22;17133;52.418;13.398;2022-10-14T00:54:19;8.20;99.90
30328;DHT22;17133;52.418;13.398;2022-10-14T00:56:47;8.10;99.90
30328;DHT22;17133;52.418;13.398;2022-10-14T00:59:14;8.10;99.90
30328;DHT22;17133;52.418;13.398;2022-10-14T01:01:40;8.00;99.90
30328;DHT22;17133;52.418;13.398;2022-10-14T01:04:06;8.20;99.90
30328;DHT22;17133;52.418;13.398;2022-10-14T01:17:52;8.00;99.90
30328;DHT22;17133;52.418;13.398;2022-10-14T01:23:42;7.90;99.90
30328;DHT22;17133;52.418;13.398;2022-10-14T01:26:43;7.10;99.90
30328;DHT22;17133;52.418;13.398;2022-10-14T01:32:15;7.80;99.90
30328;DHT22;17133;52.418;13.398;2022-10-14T01:34:52;7.80;99.90
30328;DHT22;17133;52.418;13.398;2022-10-14T01:37:23;7.70;99.90
30328;DHT22;17133;52.418;13.398;2022-10-14T01:39:55;7.80;99.90
30328;DHT22;17133;52.418;13.398;2022-10-14T01:42:27;7.80;99.90
30328;DHT22;17133;52.418;13.398;2022-10-14T01:44:58;7.70;99.90
30328;DHT22;17133;52.418;13.398;2022-10-14T01:47:27;7.70;99.90
30328;DHT22;17133;52.418;13.398;2022-10-14T01:50:04;7.70;99.90
30328;DHT22;17133;52.418;13.398;2022-10-14T01:52:35;7.70;99.90
30328;DHT22;17133;52.418;13.398;2022-10-14T01:55:06;7.70;99.90
30328;DHT22;17133;52.418;13.398;2022-10-14T01:57:35;7.70;99.90
30328;DHT22;17133;52.418;13.398;2022-10-14T02:00:04;7.70;99.90
30328;DHT22;17133;52.418;13.398;2022-10-14T02:02:35;7.70;99.90
30328;DHT22;17133;52.418;13.398;2022-10-14T02:05:02;7.70;99.90
30328;DHT22;17133;52.418;13.398;2022-10-14T02:07:40;7.80;99.90
30328;DHT22;17133;52.418;13.398;2022-10-14T02:13:38;7.60;99.90
30328;DHT22;17133;52.418;13.398;2022-10-14T02:22:03;7.80;99.90
30328;DHT22;17133;52.418;13.398;2022-10-14T02:24:41;7.90;99.90
30328;DHT22;17133;52.418;13.398;2022-10-14T02:27:12;7.90;99.90
30328;DHT22;17133;52.418;13.398;2022-10-14T02:29:40;7.90;99.90
30328;DHT22;17133;52.418;13.398;2022-10-14T02:32:07;7.90;99.90
30328;DHT22;17133;52.418;13.398;2022-10-14T02:34:36;7.90;99.90
30328;DHT22;17133;52.418;13.398;2022-10-14T02:37:02;7.90;99.90
30328;DHT22;17133;52.418;13.398;2022-10-14T02:39:36;7.90;99.90
30328;DHT22;17133;52.418;13.398;2022-10-14T02:42:02;8.00;99.90
30328;DHT22;17133;52.418;13.398;2022-10-14T02:44:28;8.00;99.90
30328;DHT22;17133;52.418;13.398;2022-10-14T02:46:55;8.00;99.90
30328;DHT22;17133;52.418;13.398;2022-10-14T02:49:21;8.10;99.90
30328;DHT22;17133;52.418;13.398;2022-10-14T02:51:46;8.20;99.90
30328;DHT22;17133;52.418;13.398;2022-10-14T02:54:12;8.20;99.90
30328;DHT22;17133;52.418;13.398;2022-10-14T02:59:05;8.00;99.90
30328;DHT22;17133;52.418;13.398;2022-10-14T03:01:31;8.20;99.90
30328;DHT22;17133;52.418;13.398;2022-10-14T03:03:57;8.30;99.90
30328;DHT22;17133;52.418;13.398;2022-10-14T03:06:22;8.30;99.90
30328;DHT22;17133;52.418;13.398;2022-10-14T03:08:48;8.40;99.90
30328;DHT22;17133;52.418;13.398;2022-10-14T03:11:13;8.40;99.90
30328;DHT22;17133;52.418;13.398;2022-10-14T03:13:39;8.20;99.90
30328;DHT22;17133;52.418;13.398;2022-10-14T03:18:30;8.20;99.90
30328;DHT22;17133;52.418;13.398;2022-10-14T03:20:57;8.50;99.90
30328;DHT22;17133;52.418;13.398;2022-10-14T03:23:23;8.50;99.90
30328;DHT22;17133;52.418;13.398;2022-10-14T03:25:48;8.50;99.90
30328;DHT22;17133;52.418;13.398;2022-10-14T03:28:14;8.50;99.90
30328;DHT22;17133;52.418;13.398;2022-10-14T03:30:39;8.50;99.90
30328;DHT22;17133;52.418;13.398;2022-10-14T03:35:31;8.40;99.90
30328;DHT22;17133;52.418;13.398;2022-10-14T03:37:57;8.60;99.90
30328;DHT22;17133;52.418;13.398;2022-10-14T03:40:23;8.60;99.90
30328;DHT22;17133;52.418;13.398;2022-10-14T03:45:15;8.60;99.90
30328;DHT22;17133;52.418;13.398;2022-10-14T03:47:41;8.60;99.90
30328;DHT22;17133;52.418;13.398;2022-10-14T03:50:06;8.40;99.90
30328;DHT22;17133;52.418;13.398;2022-10-14T03:52:32;8.60;99.90
30328;DHT22;17133;52.418;13.398;2022-10-14T03:54:58;8.60;99.90
30328;DHT22;17133;52.418;13.398;2022-10-14T03:57:24;8.40;99.90
30328;DHT22;17133;52.418;13.398;2022-10-14T03:59:50;8.60;99.90
30328;DHT22;17133;52.418;13.398;2022-10-14T04:02:16;8.60;99.90
30328;DHT22;17133;52.418;13.398;2022-10-14T04:04:41;8.60;99.90
30328;DHT22;17133;52.418;13.398;2022-10-14T04:07:07;8.60;99.90
30328;DHT22;17133;52.418;13.398;2022-10-14T04:09:32;8.50;99.90
30328;DHT22;17133;52.418;13.398;2022-10-14T04:11:58;8.60;99.90
30328;DHT22;17133;52.418;13.398;2022-10-14T04:14:24;8.50;99.90
30328;DHT22;17133;52.418;13.398;2022-10-14T04:16:51;8.50;99.90
30328;DHT22;17133;52.418;13.398;2022-10-14T04:19:17;8.50;99.90
30328;DHT22;17133;52.418;13.398;2022-10-14T04:21:43;8.40;99.90
30328;DHT22;17133;52.418;13.398;2022-10-14T04:24:09;8.40;99.90
30328;DHT22;17133;52.418;13.398;2022-10-14T04:29:01;8.10;99.90
30328;DHT22;17133;52.418;13.398;2022-10-14T04:31:27;8.30;99.90
30328;DHT22;17133;52.418;13.398;2022-10-14T04:33:52;8.00;99.90
30328;DHT22;17133;52.418;13.398;2022-10-14T04:36:18;8.10;99.90
30328;DHT22;17133;52.418;13.398;2022-10-14T04:38:43;8.30;99.90
30328;DHT22;17133;52.418;13.398;2022-10-14T04:41:09;8.30;99.90
30328;DHT22;17133;52.418;13.398;2022-10-14T04:43:34;8.30;99.90
30328;DHT22;17133;52.418;13.398;2022-10-14T04:46:00;8.30;99.90
30328;DHT22;17133;52.418;13.398;2022-10-14T04:50:52;8.30;99.90
30328;DHT22;17133;52.418;13.398;2022-10-14T04:53:19;8.30;99.90
30328;DHT22;17133;52.418;13.398;2022-10-14T04:55:45;8.00;99.90
30328;DHT22;17133;52.418;13.398;2022-10-14T04:58:14;8.30;99.90
30328;DHT22;17133;52.418;13.398;2022-10-14T05:00:39;8.40;99.90
30328;DHT22;17133;52.418;13.398;2022-10-14T05:03:05;8.40;99.90
30328;DHT22;17133;52.418;13.398;2022-10-14T05:05:31;8.20;99.90
30328;DHT22;17133;52.418;13.398;2022-10-14T05:07:56;8.40;99.90
30328;DHT22;17133;52.418;13.398;2022-10-14T05:10:22;8.40;99.90
30328;DHT22;17133;52.418;13.398;2022-10-14T05:12:48;8.40;99.90
30328;DHT22;17133;52.418;13.398;2022-10-14T05:15:14;8.40;99.90
30328;DHT22;17133;52.418;13.398;2022-10-14T05:17:40;8.50;99.90
30328;DHT22;17133;52.418;13.398;2022-10-14T05:20:09;8.50;99.90
30328;DHT22;17133;52.418;13.398;2022-10-14T05:22:35;8.50;99.90
30328;DHT22;17133;52.418;13.398;2022-10-14T05:25:00;8.60;99.90
30328;DHT22;17133;52.418;13.398;2022-10-14T05:27:26;8.60;99.90
30328;DHT22;17133;52.418;13.398;2022-10-14T05:29:52;8.70;99.90
30328;DHT22;17133;52.418;13.398;2022-10-14T05:32:17;8.80;99.90
30328;DHT22;17133;52.418;13.398;2022-10-14T05:34:43;8.80;99.90
30328;DHT22;17133;52.418;13.398;2022-10-14T05:37:08;8.60;99.90
30328;DHT22;17133;52.418;13.398;2022-10-14T05:39:34;8.80;99.90
30328;DHT22;17133;52.418;13.398;2022-10-14T05:41:59;8.90;99.90
30328;DHT22;17133;52.418;13.398;2022-10-14T05:44:25;8.90;99.90
30328;DHT22;17133;52.418;13.398;2022-10-14T05:46:51;8.90;99.90
30328;DHT22;17133;52.418;13.398;2022-10-14T05:49:16;8.90;99.90
30328;DHT22;17133;52.418;13.398;2022-10-14T05:51:42;8.80;99.90
30328;DHT22;17133;52.418;13.398;2022-10-14T05:54:08;9.00;99.90
30328;DHT22;17133;52.418;13.398;2022-10-14T05:56:33;9.00;99.90
30328;DHT22;17133;52.418;13.398;2022-10-14T05:58:59;8.90;99.90
30328;DHT22;17133;52.418;13.398;2022-10-14T06:01:24;8.90;99.90
30328;DHT22;17133;52.418;13.398;2022-10-14T06:03:51;9.00;99.90
30328;DHT22;17133;52.418;13.398;2022-10-14T06:06:17;9.10;99.90
30328;DHT22;17133;52.418;13.398;2022-10-14T06:23:25;9.40;99.90
30328;DHT22;17133;52.418;13.398;2022-10-14T06:25:50;9.40;99.90
30328;DHT22;17133;52.418;13.398;2022-10-14T06:28:16;9.40;99.90
30328;DHT22;17133;52.418;13.398;2022-10-14T06:30:42;9.40;99.90
30328;DHT22;17133;52.418;13.398;2022-10-14T06:33:07;9.40;99.90
30328;DHT22;17133;52.418;13.398;2022-10-14T06:35:33;9.50;99.90
30328;DHT22;17133;52.418;13.398;2022-10-14T06:37:59;9.50;99.90
30328;DHT22;17133;52.418;13.398;2022-10-14T06:40:24;9.60;99.90
30328;DHT22;17133;52.418;13.398;2022-10-14T06:42:50;9.60;99.90
30328;DHT22;17133;52.418;13.398;2022-10-14T06:45:16;9.60;99.90
30328;DHT22;17133;52.418;13.398;2022-10-14T06:47:42;9.60;99.90
30328;DHT22;17133;52.418;13.398;2022-10-14T06:50:07;9.70;99.90
30328;DHT22;17133;52.418;13.398;2022-10-14T06:52:33;9.70;99.90
30328;DHT22;17133;52.418;13.398;2022-10-14T06:54:59;9.80;99.90
30328;DHT22;17133;52.418;13.398;2022-10-14T06:57:24;9.80;99.90
30328;DHT22;17133;52.418;13.398;2022-10-14T06:59:50;9.80;99.90
30328;DHT22;17133;52.418;13.398;2022-10-14T07:02:15;9.90;99.90
30328;DHT22;17133;52.418;13.398;2022-10-14T07:04:41;9.90;99.90
30328;DHT22;17133;52.418;13.398;2022-10-14T07:07:07;10.00;99.90
30328;DHT22;17133;52.418;13.398;2022-10-14T07:09:33;10.00;99.90
30328;DHT22;17133;52.418;13.398;2022-10-14T07:11:58;10.00;99.90
30328;DHT22;17133;52.418;13.398;2022-10-14T07:14:24;10.10;99.90
30328;DHT22;17133;52.418;13.398;2022-10-14T07:16:50;10.20;99.90
30328;DHT22;17133;52.418;13.398;2022-10-14T07:19:15;10.20;99.90
30328;DHT22;17133;52.418;13.398;2022-10-14T07:24:08;10.40;99.90
30328;DHT22;17133;52.418;13.398;2022-10-14T07:26:33;10.40;99.90
30328;DHT22;17133;52.418;13.398;2022-10-14T07:28:59;10.40;99.90
30328;DHT22;17133;52.418;13.398;2022-10-14T07:36:19;10.80;99.90
30328;DHT22;17133;52.418;13.398;2022-10-14T07:38:45;10.80;99.90
30328;DHT22;17133;52.418;13.398;2022-10-14T07:41:22;10.90;99.90
30328;DHT22;17133;52.418;13.398;2022-10-14T07:43:53;10.90;99.90
30328;DHT22;17133;52.418;13.398;2022-10-14T07:46:21;11.00;99.90
30328;DHT22;17133;52.418;13.398;2022-10-14T07:48:58;11.00;99.90
30328;DHT22;17133;52.418;13.398;2022-10-14T07:51:25;11.10;99.90
30328;DHT22;17133;52.418;13.398;2022-10-14T07:58:43;11.60;99.90
30328;DHT22;17133;52.418;13.398;2022-10-14T08:37:59;13.00;99.90
30328;DHT22;17133;52.418;13.398;2022-10-14T08:40:27;12.90;99.90
30328;DHT22;17133;52.418;13.398;2022-10-14T08:43:04;12.90;99.90
30328;DHT22;17133;52.418;13.398;2022-10-14T09:31:20;14.70;99.90
30328;DHT22;17133;52.418;13.398;2022-10-14T09:33:46;14.70;99.90
30328;DHT22;17133;52.418;13.398;2022-10-14T09:36:14;15.40;99.90
30328;DHT22;17133;52.418;13.398;2022-10-14T09:38:41;14.70;99.90
30328;DHT22;17133;52.418;13.398;2022-10-14T09:41:09;14.70;99.90
30328;DHT22;17133;52.418;13.398;2022-10-14T09:43:36;14.80;99.90
30328;DHT22;17133;52.418;13.398;2022-10-14T09:46:04;14.80;99.90
30328;DHT22;17133;52.418;13.398;2022-10-14T09:48:36;14.90;99.90
30328;DHT22;17133;52.418;13.398;2022-10-14T09:51:29;14.90;99.90
30328;DHT22;17133;52.418;13.398;2022-10-14T09:53:57;15.10;99.90
30328;DHT22;17133;52.418;13.398;2022-10-14T09:56:39;15.10;99.90
30328;DHT22;17133;52.418;13.398;2022-10-14T09:59:16;15.20;99.90
30328;DHT22;17133;52.418;13.398;2022-10-14T10:01:49;15.20;99.90
30328;DHT22;17133;52.418;13.398;2022-10-14T10:06:54;15.50;99.90
30328;DHT22;17133;52.418;13.398;2022-10-14T10:09:20;15.50;99.90
30328;DHT22;17133;52.418;13.398;2022-10-14T10:11:46;15.60;99.90
30328;DHT22;17133;52.418;13.398;2022-10-14T10:14:26;15.70;99.90
30328;DHT22;17133;52.418;13.398;2022-10-14T10:19:39;15.90;99.90
30328;DHT22;17133;52.418;13.398;2022-10-14T10:24:42;16.10;99.90
30328;DHT22;17133;52.418;13.398;2022-10-14T10:27:45;16.10;99.90
30328;DHT22;17133;52.418;13.398;2022-10-14T13:26:35;18.10;99.90
30328;DHT22;17133;52.418;13.398;2022-10-14T13:29:16;18.00;99.90
30328;DHT22;17133;52.418;13.398;2022-10-14T13:39:43;17.70;99.90
30328;DHT22;17133;52.418;13.398;2022-10-14T13:42:31;17.70;99.90
30328;DHT22;17133;52.418;13.398;2022-10-14T13:45:05;17.70;99.90
30328;DHT22;17133;52.418;13.398;2022-10-14T13:47:34;17.70;99.90
30328;DHT22;17133;52.418;13.398;2022-10-14T13:50:02;17.70;99.90
30328;DHT22;17133;52.418;13.398;2022-10-14T13:52:32;17.70;99.90
30328;DHT22;17133;52.418;13.398;2022-10-14T13:55:10;17.70;99.90
30328;DHT22;17133;52.418;13.398;2022-10-14T13:57:37;17.60;99.90
30328;DHT22;17133;52.418;13.398;2022-10-14T14:00:24;18.60;99.90
30328;DHT22;17133;52.418;13.398;2022-10-14T14:02:50;17.60;99.90
30328;DHT22;17133;52.418;13.398;2022-10-14T14:05:17;17.60;99.90
30328;DHT22;17133;52.418;13.398;2022-10-14T14:07:44;17.50;99.90
30328;DHT22;17133;52.418;13.398;2022-10-14T14:10:10;17.60;99.90
30328;DHT22;17133;52.418;13.398;2022-10-14T14:12:36;17.50;99.90
30328;DHT22;17133;52.418;13.398;2022-10-14T14:15:03;17.50;99.90
30328;DHT22;17133;52.418;13.398;2022-10-14T14:17:30;17.50;99.90
30328;DHT22;17133;52.418;13.398;2022-10-14T14:19:57;17.40;99.90
30328;DHT22;17133;52.418;13.398;2022-10-14T14:22:25;17.40;99.90
30328;DHT22;17133;52.418;13.398;2022-10-14T14:25:10;17.40;99.90
30328;DHT22;17133;52.418;13.398;2022-10-14T14:27:45;17.40;99.90
30328;DHT22;17133;52.418;13.398;2022-10-14T14:30:26;17.30;99.90
30328;DHT22;17133;52.418;13.398;2022-10-14T14:32:54;17.20;99.90
30328;DHT22;17133;52.418;13.398;2022-10-14T14:35:20;17.20;99.90
30328;DHT22;17133;52.418;13.398;2022-10-14T14:37:46;17.20;99.90
30328;DHT22;17133;52.418;13.398;2022-10-14T14:40:16;17.20;99.90
30328;DHT22;17133;52.418;13.398;2022-10-14T14:42:42;17.10;99.90
30328;DHT22;17133;52.418;13.398;2022-10-14T14:45:16;17.20;99.90
30328;DHT22;17133;52.418;13.398;2022-10-14T14:47:44;17.10;99.90
30328;DHT22;17133;52.418;13.398;2022-10-14T14:50:13;17.20;99.90
30328;DHT22;17133;52.418;13.398;2022-10-14T14:52:41;17.20;99.90
30328;DHT22;17133;52.418;13.398;2022-10-14T14:56:12;16.60;99.90
30328;DHT22;17133;52.418;13.398;2022-10-14T14:58:20;17.30;99.90
30328;DHT22;17133;52.418;13.398;2022-10-14T15:00:46;17.30;99.90
30328;DHT22;17133;52.418;13.398;2022-10-14T15:03:14;17.30;99.90
30328;DHT22;17133;52.418;13.398;2022-10-14T15:05:40;17.20;99.90
30328;DHT22;17133;52.418;13.398;2022-10-14T15:08:20;17.10;99.90
30328;DHT22;17133;52.418;13.398;2022-10-14T15:10:47;17.00;99.90
30328;DHT22;17133;52.418;13.398;2022-10-14T15:13:46;17.00;99.90
30328;DHT22;17133;52.418;13.398;2022-10-14T15:16:13;16.90;99.90
30328;DHT22;17133;52.418;13.398;2022-10-14T15:22:07;16.80;99.90
30328;DHT22;17133;52.418;13.398;2022-10-14T15:24:30;16.80;99.90
30328;DHT22;17133;52.418;13.398;2022-10-14T15:26:55;16.70;99.90
30328;DHT22;17133;52.418;13.398;2022-10-14T15:29:21;16.60;99.90
30328;DHT22;17133;52.418;13.398;2022-10-14T15:34:26;16.40;99.90
30328;DHT22;17133;52.418;13.398;2022-10-14T15:36:52;17.20;99.90
30328;DHT22;17133;52.418;13.398;2022-10-14T15:39:19;16.30;99.90
30328;DHT22;17133;52.418;13.398;2022-10-14T15:41:44;16.20;99.90
30328;DHT22;17133;52.418;13.398;2022-10-14T15:44:11;16.10;99.90
30328;DHT22;17133;52.418;13.398;2022-10-14T15:46:37;16.10;99.90
30328;DHT22;17133;52.418;13.398;2022-10-14T15:49:26;16.00;99.90
30328;DHT22;17133;52.418;13.398;2022-10-14T15:51:52;15.90;99.90
30328;DHT22;17133;52.418;13.398;2022-10-14T15:54:17;15.90;99.90
30328;DHT22;17133;52.418;13.398;2022-10-14T15:56:43;15.80;99.90
30328;DHT22;17133;52.418;13.398;2022-10-14T15:59:09;15.70;99.90
30328;DHT22;17133;52.418;13.398;2022-10-14T16:01:36;15.70;99.90
30328;DHT22;17133;52.418;13.398;2022-10-14T16:04:02;15.60;99.90
30328;DHT22;17133;52.418;13.398;2022-10-14T16:06:29;15.50;99.90
30328;DHT22;17133;52.418;13.398;2022-10-14T16:08:55;15.90;99.90
30328;DHT22;17133;52.418;13.398;2022-10-14T16:13:48;15.30;99.90
30328;DHT22;17133;52.418;13.398;2022-10-14T16:16:20;15.30;99.90
30328;DHT22;17133;52.418;13.398;2022-10-14T16:18:46;15.20;99.90
30328;DHT22;17133;52.418;13.398;2022-10-14T16:21:14;15.10;99.90
30328;DHT22;17133;52.418;13.398;2022-10-14T16:23:40;15.00;99.90
30328;DHT22;17133;52.418;13.398;2022-10-14T16:26:07;15.00;99.90
30328;DHT22;17133;52.418;13.398;2022-10-14T16:28:33;14.90;99.90
30328;DHT22;17133;52.418;13.398;2022-10-14T16:30:58;14.90;99.90
30328;DHT22;17133;52.418;13.398;2022-10-14T16:33:24;14.80;99.90
30328;DHT22;17133;52.418;13.398;2022-10-14T16:35:52;14.60;99.90
30328;DHT22;17133;52.418;13.398;2022-10-14T16:38:19;14.70;99.90
30328;DHT22;17133;52.418;13.398;2022-10-14T16:40:47;14.70;99.90
30328;DHT22;17133;52.418;13.398;2022-10-14T16:43:17;14.60;99.90
30328;DHT22;17133;52.418;13.398;2022-10-14T16:45:43;14.60;99.90
30328;DHT22;17133;52.418;13.398;2022-10-14T16:48:08;14.60;99.90
30328;DHT22;17133;52.418;13.398;2022-10-14T16:50:34;14.50;99.90
30328;DHT22;17133;52.418;13.398;2022-10-14T16:52:59;14.50;99.90
30328;DHT22;17133;52.418;13.398;2022-10-14T16:55:43;14.50;99.90
30328;DHT22;17133;52.418;13.398;2022-10-14T16:58:09;14.50;99.90
30328;DHT22;17133;52.418;13.398;2022-10-14T17:00:34;14.50;99.90
30328;DHT22;17133;52.418;13.398;2022-10-14T17:03:00;14.50;99.90
30328;DHT22;17133;52.418;13.398;2022-10-14T17:05:26;14.40;99.90
30328;DHT22;17133;52.418;13.398;2022-10-14T17:07:52;14.40;99.90
30328;DHT22;17133;52.418;13.398;2022-10-14T17:10:18;14.40;99.90
30328;DHT22;17133;52.418;13.398;2022-10-14T17:12:45;14.30;99.90
30328;DHT22;17133;52.418;13.398;2022-10-14T17:15:11;14.30;99.90
30328;DHT22;17133;52.418;13.398;2022-10-14T17:17:37;14.40;99.90
30328;DHT22;17133;52.418;13.398;2022-10-14T17:20:05;15.80;99.90
30328;DHT22;17133;52.418;13.398;2022-10-14T17:22:33;14.30;99.90
30328;DHT22;17133;52.418;13.398;2022-10-14T17:24:59;14.30;99.90
30328;DHT22;17133;52.418;13.398;2022-10-14T17:27:25;14.30;99.90
30328;DHT22;17133;52.418;13.398;2022-10-14T17:29:50;14.30;99.90
30328;DHT22;17133;52.418;13.398;2022-10-14T17:32:16;14.10;99.90
30328;DHT22;17133;52.418;13.398;2022-10-14T17:34:42;14.30;99.90
30328;DHT22;17133;52.418;13.398;2022-10-14T17:37:08;14.20;99.90
30328;DHT22;17133;52.418;13.398;2022-10-14T17:39:33;14.20;99.90
30328;DHT22;17133;52.418;13.398;2022-10-14T17:41:59;14.20;99.90
30328;DHT22;17133;52.418;13.398;2022-10-14T17:44:25;14.20;99.90
30328;DHT22;17133;52.418;13.398;2022-10-14T17:46:51;14.10;99.90
30328;DHT22;17133;52.418;13.398;2022-10-14T17:49:17;14.10;99.90
30328;DHT22;17133;52.418;13.398;2022-10-14T17:51:43;14.10;99.90
30328;DHT22;17133;52.418;13.398;2022-10-14T17:54:10;14.00;99.90
30328;DHT22;17133;52.418;13.398;2022-10-14T17:56:36;14.00;99.90
30328;DHT22;17133;52.418;13.398;2022-10-14T17:59:04;14.00;99.90
30328;DHT22;17133;52.418;13.398;2022-10-14T18:01:31;13.90;99.90
30328;DHT22;17133;52.418;13.398;2022-10-14T18:03:58;13.90;99.90
30328;DHT22;17133;52.418;13.398;2022-10-14T18:06:26;13.90;99.90
30328;DHT22;17133;52.418;13.398;2022-10-14T18:08:54;13.90;99.90
30328;DHT22;17133;52.418;13.398;2022-10-14T18:11:21;13.80;99.90
30328;DHT22;17133;52.418;13.398;2022-10-14T18:13:57;13.80;99.90
30328;DHT22;17133;52.418;13.398;2022-10-14T18:16:25;13.80;99.90
30328;DHT22;17133;52.418;13.398;2022-10-14T18:18:52;13.70;99.90
30328;DHT22;17133;52.418;13.398;2022-10-14T18:21:18;13.70;99.90
30328;DHT22;17133;52.418;13.398;2022-10-14T18:23:44;13.70;99.90
30328;DHT22;17133;52.418;13.398;2022-10-14T18:26:15;13.60;99.90
30328;DHT22;17133;52.418;13.398;2022-10-14T18:28:46;13.50;99.90
30328;DHT22;17133;52.418;13.398;2022-10-14T18:31:23;13.50;99.90
30328;DHT22;17133;52.418;13.398;2022-10-14T18:33:50;13.50;99.90
30328;DHT22;17133;52.418;13.398;2022-10-14T18:36:18;13.50;99.90
30328;DHT22;17133;52.418;13.398;2022-10-14T18:38:52;14.40;99.90
30328;DHT22;17133;52.418;13.398;2022-10-14T18:41:19;13.40;99.90
30328;DHT22;17133;52.418;13.398;2022-10-14T18:43:45;13.40;99.90
30328;DHT22;17133;52.418;13.398;2022-10-14T18:46:16;13.30;99.90
30328;DHT22;17133;52.418;13.398;2022-10-14T18:48:44;13.30;99.90
30328;DHT22;17133;52.418;13.398;2022-10-14T18:51:15;13.20;99.90
30328;DHT22;17133;52.418;13.398;2022-10-14T18:53:42;13.20;99.90
30328;DHT22;17133;52.418;13.398;2022-10-14T18:56:11;13.50;99.90
30328;DHT22;17133;52.418;13.398;2022-10-14T18:58:43;13.10;99.90
30328;DHT22;17133;52.418;13.398;2022-10-14T19:01:10;13.10;99.90
30328;DHT22;17133;52.418;13.398;2022-10-14T19:03:37;13.00;99.90
30328;DHT22;17133;52.418;13.398;2022-10-14T19:06:04;13.00;99.90
30328;DHT22;17133;52.418;13.398;2022-10-14T19:08:34;13.00;99.90
30328;DHT22;17133;52.418;13.398;2022-10-14T19:11:22;12.90;99.90
30328;DHT22;17133;52.418;13.398;2022-10-14T19:13:51;12.90;99.90
30328;DHT22;17133;52.418;13.398;2022-10-14T19:18:44;12.80;99.90
30328;DHT22;17133;52.418;13.398;2022-10-14T19:21:12;15.70;99.90
30328;DHT22;17133;52.418;13.398;2022-10-14T19:23:40;12.70;99.90
30328;DHT22;17133;52.418;13.398;2022-10-14T19:26:18;12.70;99.90
30328;DHT22;17133;52.418;13.398;2022-10-14T19:28:44;12.70;99.90
30328;DHT22;17133;52.418;13.398;2022-10-14T19:31:12;12.70;99.90
30328;DHT22;17133;52.418;13.398;2022-10-14T19:33:39;12.40;99.90
30328;DHT22;17133;52.418;13.398;2022-10-14T19:36:05;12.60;99.90
30328;DHT22;17133;52.418;13.398;2022-10-14T19:38:32;12.60;99.90
30328;DHT22;17133;52.418;13.398;2022-10-14T19:40:59;12.60;99.90
30328;DHT22;17133;52.418;13.398;2022-10-14T19:43:25;12.60;99.90
30328;DHT22;17133;52.418;13.398;2022-10-14T19:45:51;12.60;99.90
30328;DHT22;17133;52.418;13.398;2022-10-14T19:48:16;12.50;99.90
30328;DHT22;17133;52.418;13.398;2022-10-14T19:50:42;12.50;99.90
30328;DHT22;17133;52.418;13.398;2022-10-14T19:53:08;12.50;99.90
30328;DHT22;17133;52.418;13.398;2022-10-14T19:55:34;12.50;99.90
30328;DHT22;17133;52.418;13.398;2022-10-14T19:58:00;15.10;99.90
30328;DHT22;17133;52.418;13.398;2022-10-14T20:00:26;12.50;99.90
30328;DHT22;17133;52.418;13.398;2022-10-14T20:02:51;12.50;99.90
30328;DHT22;17133;52.418;13.398;2022-10-14T20:05:17;12.50;99.90
30328;DHT22;17133;52.418;13.398;2022-10-14T20:07:43;12.50;99.90
30328;DHT22;17133;52.418;13.398;2022-10-14T20:10:10;12.50;99.90
30328;DHT22;17133;52.418;13.398;2022-10-14T20:12:36;12.50;99.90
30328;DHT22;17133;52.418;13.398;2022-10-14T20:15:02;12.50;99.90
30328;DHT22;17133;52.418;13.398;2022-10-14T20:17:28;12.60;99.90
30328;DHT22;17133;52.418;13.398;2022-10-14T20:19:54;12.60;99.90
30328;DHT22;17133;52.418;13.398;2022-10-14T20:22:19;12.60;99.90
30328;DHT22;17133;52.418;13.398;2022-10-14T20:24:45;12.60;99.90
30328;DHT22;17133;52.418;13.398;2022-10-14T20:27:10;12.60;99.90
30328;DHT22;17133;52.418;13.398;2022-10-14T20:29:37;12.60;99.90
30328;DHT22;17133;52.418;13.398;2022-10-14T20:32:03;12.60;99.90
30328;DHT22;17133;52.418;13.398;2022-10-14T20:34:29;12.70;99.90
30328;DHT22;17133;52.418;13.398;2022-10-14T20:36:54;12.70;99.90
30328;DHT22;17133;52.418;13.398;2022-10-14T20:39:21;12.70;99.90
30328;DHT22;17133;52.418;13.398;2022-10-14T20:41:48;12.70;99.90
30328;DHT22;17133;52.418;13.398;2022-10-14T20:44:14;12.70;99.90
30328;DHT22;17133;52.418;13.398;2022-10-14T20:46:39;12.70;99.90
30328;DHT22;17133;52.418;13.398;2022-10-14T20:49:05;12.70;99.90
30328;DHT22;17133;52.418;13.398;2022-10-14T20:51:31;12.70;99.90
30328;DHT22;17133;52.418;13.398;2022-10-14T20:53:58;12.70;99.90
30328;DHT22;17133;52.418;13.398;2022-10-14T20:56:24;12.70;99.90
30328;DHT22;17133;52.418;13.398;2022-10-14T20:58:54;12.70;99.90
30328;DHT22;17133;52.418;13.398;2022-10-14T21:01:19;12.70;99.90
30328;DHT22;17133;52.418;13.398;2022-10-14T21:03:45;12.60;99.90
30328;DHT22;17133;52.418;13.398;2022-10-14T21:06:15;12.70;99.90
30328;DHT22;17133;52.418;13.398;2022-10-14T21:08:41;12.70;99.90
30328;DHT22;17133;52.418;13.398;2022-10-14T21:11:09;12.70;99.90
30328;DHT22;17133;52.418;13.398;2022-10-14T21:13:35;12.70;99.90
30328;DHT22;17133;52.418;13.398;2022-10-14T21:16:01;12.70;99.90
30328;DHT22;17133;52.418;13.398;2022-10-14T21:18:26;12.70;99.90
30328;DHT22;17133;52.418;13.398;2022-10-14T21:20:53;12.70;99.90
30328;DHT22;17133;52.418;13.398;2022-10-14T21:23:19;12.80;99.90
30328;DHT22;17133;52.418;13.398;2022-10-14T21:25:53;12.70;99.90
30328;DHT22;17133;52.418;13.398;2022-10-14T21:28:19;12.70;99.90
30328;DHT22;17133;52.418;13.398;2022-10-14T21:30:45;13.40;99.90